createdAt,value
2017-07-09T00:00:06.974Z,0
2017-07-09T00:01:05.829Z,0
2017-07-09T00:02:06.536Z,0
2017-07-09T00:03:05.733Z,0
2017-07-09T00:04:06.296Z,0
2017-07-09T00:05:06.154Z,0
2017-07-09T00:06:05.997Z,0
2017-07-09T00:07:06.374Z,0
2017-07-09T00:08:06.048Z,0
2017-07-09T00:09:06.084Z,0
2017-07-09T00:10:05.842Z,0
2017-07-09T00:11:05.756Z,0
2017-07-09T00:12:05.714Z,0
2017-07-09T00:13:05.775Z,0
2017-07-09T00:14:05.740Z,0
2017-07-09T00:15:05.813Z,0
2017-07-09T00:16:05.667Z,0
2017-07-09T00:17:06.245Z,0
2017-07-09T00:18:05.943Z,0
2017-07-09T00:19:06.089Z,0
2017-07-09T00:20:06.387Z,0
2017-07-09T00:21:06.457Z,0
2017-07-09T00:22:06.118Z,0
2017-07-09T00:23:06.489Z,0
2017-07-09T00:24:05.706Z,0
2017-07-09T00:25:06.100Z,0
2017-07-09T00:26:06.051Z,0
2017-07-09T00:27:06.264Z,0
2017-07-09T00:28:06.793Z,0
2017-07-09T00:29:05.938Z,0
2017-07-09T00:30:05.928Z,0
2017-07-09T00:31:05.922Z,0
2017-07-09T00:32:05.601Z,0
2017-07-09T00:33:05.606Z,0
2017-07-09T00:34:06.490Z,0
2017-07-09T00:35:06.303Z,0
2017-07-09T00:36:05.946Z,0
2017-07-09T00:37:06.535Z,0
2017-07-09T00:38:06.586Z,0
2017-07-09T00:39:05.910Z,0
2017-07-09T00:40:05.943Z,0
2017-07-09T00:41:06.795Z,0
2017-07-09T00:42:06.880Z,0
2017-07-09T00:43:06.259Z,0
2017-07-09T00:44:05.912Z,0
2017-07-09T00:45:05.569Z,0
2017-07-09T00:46:05.890Z,0
2017-07-09T00:47:05.964Z,0
2017-07-09T00:48:05.897Z,0
2017-07-09T00:49:05.647Z,0
2017-07-09T00:50:05.908Z,0
2017-07-09T00:51:06.321Z,0
2017-07-09T00:52:06.408Z,0
2017-07-09T00:53:06.042Z,0
2017-07-09T00:54:05.884Z,0
2017-07-09T00:55:05.561Z,0
2017-07-09T00:56:06.584Z,0
2017-07-09T00:57:05.916Z,0
2017-07-09T00:58:06.113Z,0
2017-07-09T00:59:06.339Z,0
2017-07-09T01:00:05.910Z,0
2017-07-09T01:01:07.068Z,0
2017-07-09T01:02:06.209Z,0
2017-07-09T01:03:06.475Z,0
2017-07-09T01:04:05.718Z,0
2017-07-09T01:05:05.553Z,0
2017-07-09T01:06:06.227Z,0
2017-07-09T01:07:05.529Z,0
2017-07-09T01:08:05.619Z,0
2017-07-09T01:09:05.941Z,0
2017-07-09T01:10:06.026Z,0
2017-07-09T01:11:06.042Z,0
2017-07-09T01:12:06.034Z,0
2017-07-09T01:13:05.984Z,0
2017-07-09T01:14:06.914Z,0
2017-07-09T01:15:05.960Z,0
2017-07-09T01:16:06.626Z,0
2017-07-09T01:17:05.612Z,0
2017-07-09T01:18:05.942Z,0
2017-07-09T01:19:05.935Z,0
2017-07-09T01:20:05.598Z,0
2017-07-09T01:21:05.900Z,0
2017-07-09T01:22:06.050Z,0
2017-07-09T01:23:05.954Z,0
2017-07-09T01:24:06.238Z,0
2017-07-09T01:25:05.909Z,0
2017-07-09T01:26:05.624Z,0
2017-07-09T01:27:06.277Z,0
2017-07-09T01:28:06.199Z,0
2017-07-09T01:29:05.923Z,0
2017-07-09T01:30:05.953Z,0
2017-07-09T01:31:05.882Z,0
2017-07-09T01:32:05.581Z,0
2017-07-09T01:33:05.868Z,0
2017-07-09T01:34:05.837Z,0
2017-07-09T01:35:05.863Z,0
2017-07-09T01:36:06.293Z,0
2017-07-09T01:37:05.874Z,0
2017-07-09T01:38:05.844Z,0
2017-07-09T01:39:06.190Z,0
2017-07-09T01:40:05.874Z,0
2017-07-09T01:41:06.328Z,0
2017-07-09T01:42:06.611Z,0
2017-07-09T01:43:06.175Z,0
2017-07-09T01:44:06.182Z,0
2017-07-09T01:45:05.473Z,0
2017-07-09T01:46:05.600Z,0
2017-07-09T01:47:06.157Z,0
2017-07-09T01:48:05.526Z,0
2017-07-09T01:49:06.153Z,0
2017-07-09T01:50:06.256Z,0
2017-07-09T01:51:05.854Z,0
2017-07-09T01:52:06.052Z,0
2017-07-09T01:53:05.485Z,0
2017-07-09T01:54:05.788Z,0
2017-07-09T01:55:06.527Z,0
2017-07-09T01:56:05.874Z,0
2017-07-09T01:57:05.970Z,0
2017-07-09T01:58:06.168Z,0
2017-07-09T01:59:06.318Z,0
2017-07-09T02:00:05.810Z,0
2017-07-09T02:01:06.481Z,0
2017-07-09T02:02:05.782Z,0
2017-07-09T02:03:05.839Z,0
2017-07-09T02:04:05.516Z,0
2017-07-09T02:05:05.411Z,0
2017-07-09T02:06:05.446Z,0
2017-07-09T02:07:06.108Z,0
2017-07-09T02:08:05.801Z,0
2017-07-09T02:09:05.768Z,0
2017-07-09T02:10:06.128Z,0
2017-07-09T02:11:06.105Z,0
2017-07-09T02:12:05.429Z,0
2017-07-09T02:13:06.036Z,0
2017-07-09T02:14:06.274Z,0
2017-07-09T02:15:05.772Z,0
2017-07-09T02:16:05.783Z,0
2017-07-09T02:17:05.752Z,0
2017-07-09T02:18:06.483Z,0
2017-07-09T02:19:05.391Z,0
2017-07-09T02:20:06.013Z,0
2017-07-09T02:21:05.385Z,0
2017-07-09T02:22:05.478Z,0
2017-07-09T02:23:06.025Z,0
2017-07-09T02:24:06.410Z,0
2017-07-09T02:25:06.117Z,0
2017-07-09T02:26:05.382Z,0
2017-07-09T02:27:05.434Z,0
2017-07-09T02:28:05.700Z,0
2017-07-09T02:29:05.733Z,0
2017-07-09T02:30:05.453Z,0
2017-07-09T02:31:05.709Z,0
2017-07-09T02:32:05.844Z,4
2017-07-09T02:33:05.804Z,4
2017-07-09T02:34:06.043Z,0
2017-07-09T02:35:06.027Z,0
2017-07-09T02:36:05.375Z,4
2017-07-09T02:37:05.731Z,4
2017-07-09T02:38:05.687Z,4
2017-07-09T02:39:05.847Z,4
2017-07-09T02:40:05.724Z,4
2017-07-09T02:41:05.341Z,8
2017-07-09T02:42:05.713Z,8
2017-07-09T02:43:06.024Z,8
2017-07-09T02:44:05.409Z,12
2017-07-09T02:45:06.420Z,12
2017-07-09T02:46:05.683Z,16
2017-07-09T02:47:06.026Z,12
2017-07-09T02:48:05.895Z,20
2017-07-09T02:49:05.681Z,20
2017-07-09T02:50:05.773Z,24
2017-07-09T02:51:05.643Z,28
2017-07-09T02:52:05.339Z,32
2017-07-09T02:53:05.457Z,36
2017-07-09T02:54:05.714Z,40
2017-07-09T02:55:05.395Z,40
2017-07-09T02:56:05.788Z,44
2017-07-09T02:57:05.318Z,48
2017-07-09T02:58:05.323Z,56
2017-07-09T02:59:05.668Z,64
2017-07-09T03:00:05.519Z,76
2017-07-09T03:01:05.439Z,88
2017-07-09T03:02:05.353Z,100
2017-07-09T03:03:05.675Z,112
2017-07-09T03:04:05.321Z,120
2017-07-09T03:05:05.364Z,124
2017-07-09T03:06:06.014Z,136
2017-07-09T03:07:05.280Z,144
2017-07-09T03:08:05.353Z,148
2017-07-09T03:09:05.289Z,144
2017-07-09T03:10:05.983Z,144
2017-07-09T03:11:05.359Z,144
2017-07-09T03:12:05.337Z,152
2017-07-09T03:13:05.288Z,168
2017-07-09T03:14:05.590Z,188
2017-07-09T03:15:05.771Z,212
2017-07-09T03:16:05.572Z,228
2017-07-09T03:17:05.945Z,252
2017-07-09T03:18:05.267Z,264
2017-07-09T03:19:05.593Z,276
2017-07-09T03:20:05.609Z,288
2017-07-09T03:21:06.283Z,300
2017-07-09T03:22:05.624Z,312
2017-07-09T03:23:05.246Z,328
2017-07-09T03:24:05.266Z,348
2017-07-09T03:25:05.688Z,368
2017-07-09T03:26:05.565Z,388
2017-07-09T03:27:05.983Z,408
2017-07-09T03:28:05.881Z,428
2017-07-09T03:29:05.344Z,448
2017-07-09T03:30:05.581Z,468
2017-07-09T03:31:05.319Z,488
2017-07-09T03:32:06.091Z,524
2017-07-09T03:33:05.929Z,580
2017-07-09T03:34:05.285Z,632
2017-07-09T03:35:05.529Z,688
2017-07-09T03:36:05.521Z,748
2017-07-09T03:37:05.625Z,828
2017-07-09T03:38:05.845Z,904
2017-07-09T03:39:05.944Z,960
2017-07-09T03:40:05.522Z,968
2017-07-09T03:41:06.000Z,952
2017-07-09T03:42:05.710Z,944
2017-07-09T03:43:05.960Z,960
2017-07-09T03:44:05.195Z,992
2017-07-09T03:45:06.299Z,1032
2017-07-09T03:46:05.587Z,1056
2017-07-09T03:47:05.593Z,1072
2017-07-09T03:48:05.565Z,1076
2017-07-09T03:49:05.635Z,1104
2017-07-09T03:50:05.172Z,1164
2017-07-09T03:51:05.243Z,1256
2017-07-09T03:52:05.362Z,1332
2017-07-09T03:53:05.188Z,1356
2017-07-09T03:54:05.819Z,1328
2017-07-09T03:55:05.680Z,1312
2017-07-09T03:56:06.196Z,1312
2017-07-09T03:57:05.475Z,1360
2017-07-09T03:58:05.611Z,1400
2017-07-09T03:59:05.305Z,1416
2017-07-09T04:00:05.491Z,1440
2017-07-09T04:01:05.894Z,1512
2017-07-09T04:02:06.153Z,1604
2017-07-09T04:03:05.362Z,1644
2017-07-09T04:04:05.496Z,1648
2017-07-09T04:05:05.511Z,1636
2017-07-09T04:06:05.528Z,1656
2017-07-09T04:07:05.177Z,1692
2017-07-09T04:08:05.568Z,1756
2017-07-09T04:09:05.627Z,1848
2017-07-09T04:10:05.684Z,1948
2017-07-09T04:11:05.870Z,2004
2017-07-09T04:12:05.908Z,2016
2017-07-09T04:13:05.873Z,1976
2017-07-09T04:14:05.858Z,1908
2017-07-09T04:15:05.820Z,1852
2017-07-09T04:16:05.434Z,1840
2017-07-09T04:17:05.507Z,1880
2017-07-09T04:18:05.153Z,1988
2017-07-09T04:19:05.208Z,2128
2017-07-09T04:20:05.462Z,2212
2017-07-09T04:21:05.527Z,2276
2017-07-09T04:22:05.284Z,2368
2017-07-09T04:23:05.109Z,2468
2017-07-09T04:24:05.472Z,2588
2017-07-09T04:25:05.463Z,2660
2017-07-09T04:26:05.069Z,2676
2017-07-09T04:27:05.149Z,2640
2017-07-09T04:28:05.096Z,2608
2017-07-09T04:29:05.077Z,2532
2017-07-09T04:30:05.413Z,2452
2017-07-09T04:31:05.787Z,2428
2017-07-09T04:32:05.458Z,2436
2017-07-09T04:33:05.887Z,2492
2017-07-09T04:34:05.104Z,2604
2017-07-09T04:35:05.464Z,2796
2017-07-09T04:36:05.456Z,2988
2017-07-09T04:37:05.062Z,3116
2017-07-09T04:38:05.499Z,3228
2017-07-09T04:39:05.445Z,3248
2017-07-09T04:40:05.825Z,3204
2017-07-09T04:41:05.419Z,3128
2017-07-09T04:42:05.125Z,3080
2017-07-09T04:43:05.220Z,3156
2017-07-09T04:44:05.742Z,3272
2017-07-09T04:45:05.587Z,3452
2017-07-09T04:46:05.139Z,3636
2017-07-09T04:47:05.435Z,3756
2017-07-09T04:48:05.096Z,3868
2017-07-09T04:49:05.763Z,3828
2017-07-09T04:50:05.134Z,3644
2017-07-09T04:51:05.733Z,3424
2017-07-09T04:52:05.739Z,3244
2017-07-09T04:53:05.732Z,3184
2017-07-09T04:54:05.496Z,3272
2017-07-09T04:55:05.764Z,3408
2017-07-09T04:56:05.437Z,3556
2017-07-09T04:57:05.398Z,3676
2017-07-09T04:58:05.381Z,3724
2017-07-09T04:59:05.398Z,3756
2017-07-09T05:00:05.025Z,3720
2017-07-09T05:01:05.770Z,3712
2017-07-09T05:02:05.051Z,3688
2017-07-09T05:03:05.442Z,3652
2017-07-09T05:04:06.084Z,3616
2017-07-09T05:05:05.678Z,3620
2017-07-09T05:06:05.665Z,3656
2017-07-09T05:07:05.137Z,3784
2017-07-09T05:08:05.082Z,4020
2017-07-09T05:09:05.456Z,4228
2017-07-09T05:10:05.549Z,4352
2017-07-09T05:11:05.729Z,4356
2017-07-09T05:12:05.418Z,4312
2017-07-09T05:13:05.052Z,4300
2017-07-09T05:14:05.352Z,4320
2017-07-09T05:15:05.389Z,4348
2017-07-09T05:16:05.041Z,4284
2017-07-09T05:17:05.023Z,4088
2017-07-09T05:18:05.673Z,3932
2017-07-09T05:19:05.403Z,3812
2017-07-09T05:20:05.533Z,3804
2017-07-09T05:21:05.070Z,3924
2017-07-09T05:22:05.664Z,4068
2017-07-09T05:23:05.431Z,4240
2017-07-09T05:24:05.015Z,4424
2017-07-09T05:25:05.481Z,4588
2017-07-09T05:26:05.333Z,4820
2017-07-09T05:27:05.390Z,4964
2017-07-09T05:28:05.412Z,4996
2017-07-09T05:29:05.651Z,4972
2017-07-09T05:30:05.028Z,4932
2017-07-09T05:31:05.100Z,4880
2017-07-09T05:32:05.771Z,4928
2017-07-09T05:33:05.384Z,4988
2017-07-09T05:34:05.613Z,5056
2017-07-09T05:35:05.819Z,5052
2017-07-09T05:36:05.611Z,5044
2017-07-09T05:37:04.933Z,5024
2017-07-09T05:38:04.979Z,4872
2017-07-09T05:39:05.284Z,4920
2017-07-09T05:40:05.464Z,4972
2017-07-09T05:41:05.492Z,5000
2017-07-09T05:42:05.422Z,5124
2017-07-09T05:43:05.734Z,5324
2017-07-09T05:44:05.705Z,5544
2017-07-09T05:45:05.184Z,5724
2017-07-09T05:46:05.014Z,5968
2017-07-09T05:47:05.045Z,6376
2017-07-09T05:48:05.673Z,6680
2017-07-09T05:49:05.045Z,6824
2017-07-09T05:50:05.740Z,6888
2017-07-09T05:51:05.719Z,7016
2017-07-09T05:52:05.012Z,7232
2017-07-09T05:53:05.354Z,7384
2017-07-09T05:54:04.989Z,7360
2017-07-09T05:55:05.288Z,7308
2017-07-09T05:56:05.895Z,7324
2017-07-09T05:57:04.993Z,7396
2017-07-09T05:58:05.365Z,7512
2017-07-09T05:59:05.694Z,7596
2017-07-09T06:00:05.091Z,7684
2017-07-09T06:01:05.003Z,7716
2017-07-09T06:02:05.726Z,7796
2017-07-09T06:03:05.089Z,7880
2017-07-09T06:04:05.220Z,7880
2017-07-09T06:05:05.060Z,7840
2017-07-09T06:06:05.350Z,7760
2017-07-09T06:07:05.365Z,7808
2017-07-09T06:08:05.786Z,8132
2017-07-09T06:09:05.486Z,8692
2017-07-09T06:10:05.326Z,9064
2017-07-09T06:11:05.522Z,9032
2017-07-09T06:12:05.698Z,9132
2017-07-09T06:13:05.374Z,9300
2017-07-09T06:14:05.389Z,9188
2017-07-09T06:15:05.280Z,9260
2017-07-09T06:16:05.357Z,9240
2017-07-09T06:17:05.312Z,9052
2017-07-09T06:18:05.032Z,9020
2017-07-09T06:19:05.477Z,8976
2017-07-09T06:20:05.030Z,8668
2017-07-09T06:21:05.365Z,8232
2017-07-09T06:22:05.658Z,7992
2017-07-09T06:23:05.322Z,7944
2017-07-09T06:24:05.289Z,8508
2017-07-09T06:25:05.012Z,8928
2017-07-09T06:26:05.366Z,9460
2017-07-09T06:27:05.646Z,9796
2017-07-09T06:28:05.536Z,10352
2017-07-09T06:29:05.325Z,10920
2017-07-09T06:30:05.681Z,11880
2017-07-09T06:31:05.390Z,13040
2017-07-09T06:32:05.109Z,14320
2017-07-09T06:33:05.774Z,14740
2017-07-09T06:34:05.319Z,12816
2017-07-09T06:35:05.382Z,10944
2017-07-09T06:36:05.668Z,10752
2017-07-09T06:37:05.298Z,10976
2017-07-09T06:38:04.978Z,11528
2017-07-09T06:39:05.478Z,11088
2017-07-09T06:40:05.365Z,9912
2017-07-09T06:41:05.000Z,9060
2017-07-09T06:42:05.645Z,9440
2017-07-09T06:43:05.040Z,11228
2017-07-09T06:44:05.416Z,14364
2017-07-09T06:45:05.317Z,16896
2017-07-09T06:46:05.401Z,17184
2017-07-09T06:47:05.686Z,31488
2017-07-09T06:48:05.185Z,9580
2017-07-09T06:49:05.343Z,8148
2017-07-09T06:50:05.364Z,7352
2017-07-09T06:51:05.329Z,6976
2017-07-09T06:52:05.452Z,7028
2017-07-09T06:53:04.984Z,7516
2017-07-09T06:54:05.354Z,8468
2017-07-09T06:55:05.728Z,10052
2017-07-09T06:56:05.032Z,13112
2017-07-09T06:57:04.973Z,20128
2017-07-09T06:58:05.402Z,43232
2017-07-09T06:59:05.410Z,45664
2017-07-09T07:00:05.643Z,45408
2017-07-09T07:01:05.017Z,45312
2017-07-09T07:02:06.066Z,47072
2017-07-09T07:03:06.118Z,48064
2017-07-09T07:04:05.458Z,22560
2017-07-09T07:05:05.540Z,43968
2017-07-09T07:06:05.669Z,50176
2017-07-09T07:07:05.743Z,52928
2017-07-09T07:08:05.747Z,30688
2017-07-09T07:09:05.362Z,21952
2017-07-09T07:10:05.448Z,21248
2017-07-09T07:11:05.453Z,24928
2017-07-09T07:12:05.409Z,21984
2017-07-09T07:13:05.679Z,25216
2017-07-09T07:14:05.365Z,54432
2017-07-09T07:15:05.223Z,56448
2017-07-09T07:16:05.061Z,56512
2017-07-09T07:17:05.370Z,43968
2017-07-09T07:18:05.325Z,25344
2017-07-09T07:19:05.658Z,27008
2017-07-09T07:20:05.690Z,25536
2017-07-09T07:21:05.346Z,20704
2017-07-09T07:22:05.999Z,20160
2017-07-09T07:23:05.382Z,18496
2017-07-09T07:24:05.524Z,16608
2017-07-09T07:25:05.371Z,17120
2017-07-09T07:26:05.060Z,17536
2017-07-09T07:27:05.395Z,18400
2017-07-09T07:28:05.055Z,18400
2017-07-09T07:29:05.087Z,20736
2017-07-09T07:30:05.724Z,18880
2017-07-09T07:31:05.726Z,18432
2017-07-09T07:32:05.743Z,19040
2017-07-09T07:33:05.408Z,19616
2017-07-09T07:34:05.416Z,21536
2017-07-09T07:35:05.570Z,21984
2017-07-09T07:36:05.791Z,22496
2017-07-09T07:37:05.477Z,21376
2017-07-09T07:38:05.168Z,23936
2017-07-09T07:39:05.193Z,19328
2017-07-09T07:40:05.517Z,20896
2017-07-09T07:41:06.261Z,20032
2017-07-09T07:42:05.484Z,17856
2017-07-09T07:43:05.506Z,18400
2017-07-09T07:44:05.569Z,17632
2017-07-09T07:45:05.803Z,18144
2017-07-09T07:46:05.601Z,19328
2017-07-09T07:47:06.219Z,18464
2017-07-09T07:48:05.203Z,18400
2017-07-09T07:49:05.280Z,18176
2017-07-09T07:50:05.582Z,18240
2017-07-09T07:51:05.223Z,13792
2017-07-09T07:52:05.878Z,13036
2017-07-09T07:53:05.235Z,13752
2017-07-09T07:54:05.286Z,18656
2017-07-09T07:55:05.588Z,17728
2017-07-09T07:56:06.003Z,18752
2017-07-09T07:57:05.230Z,15736
2017-07-09T07:58:05.656Z,14016
2017-07-09T07:59:05.606Z,12540
2017-07-09T08:00:05.606Z,14760
2017-07-09T08:01:05.608Z,19264
2017-07-09T08:02:05.908Z,20384
2017-07-09T08:03:05.667Z,20704
2017-07-09T08:04:05.622Z,20096
2017-07-09T08:05:05.600Z,19520
2017-07-09T08:06:05.639Z,18688
2017-07-09T08:07:05.706Z,18464
2017-07-09T08:08:06.005Z,18240
2017-07-09T08:09:05.955Z,18368
2017-07-09T08:10:06.546Z,18048
2017-07-09T08:11:05.718Z,18272
2017-07-09T08:12:05.620Z,18112
2017-07-09T08:13:05.744Z,18112
2017-07-09T08:14:05.367Z,18304
2017-07-09T08:15:05.367Z,18656
2017-07-09T08:16:05.397Z,18464
2017-07-09T08:17:05.364Z,18400
2017-07-09T08:18:05.701Z,18272
2017-07-09T08:19:05.749Z,16844
2017-07-09T08:20:06.036Z,17184
2017-07-09T08:21:05.712Z,16928
2017-07-09T08:22:05.844Z,18272
2017-07-09T08:23:05.385Z,18368
2017-07-09T08:24:05.732Z,19136
2017-07-09T08:25:05.717Z,20192
2017-07-09T08:26:05.769Z,20800
2017-07-09T08:27:05.422Z,21504
2017-07-09T08:28:05.434Z,21056
2017-07-09T08:29:05.412Z,18528
2017-07-09T08:30:05.718Z,15672
2017-07-09T08:31:05.783Z,13448
2017-07-09T08:32:05.437Z,12276
2017-07-09T08:33:05.711Z,11856
2017-07-09T08:34:05.505Z,11852
2017-07-09T08:35:05.532Z,12172
2017-07-09T08:36:05.811Z,12420
2017-07-09T08:37:05.454Z,12756
2017-07-09T08:38:05.438Z,13432
2017-07-09T08:39:06.166Z,14760
2017-07-09T08:40:06.165Z,15576
2017-07-09T08:41:06.188Z,15704
2017-07-09T08:42:05.486Z,15088
2017-07-09T08:43:06.490Z,13892
2017-07-09T08:44:05.486Z,12944
2017-07-09T08:45:06.158Z,13012
2017-07-09T08:46:05.874Z,13084
2017-07-09T08:47:05.842Z,13412
2017-07-09T08:48:05.823Z,13432
2017-07-09T08:49:05.820Z,14204
2017-07-09T08:50:05.838Z,15020
2017-07-09T08:51:05.897Z,14864
2017-07-09T08:52:05.562Z,15332
2017-07-09T08:53:06.326Z,16000
2017-07-09T08:54:05.864Z,16544
2017-07-09T08:55:05.857Z,16800
2017-07-09T08:56:06.380Z,17280
2017-07-09T08:57:05.615Z,17568
2017-07-09T08:58:06.221Z,17376
2017-07-09T08:59:06.251Z,17856
2017-07-09T09:00:05.637Z,17824
2017-07-09T09:01:05.660Z,17760
2017-07-09T09:02:06.236Z,18272
2017-07-09T09:03:06.308Z,18400
2017-07-09T09:04:05.640Z,18304
2017-07-09T09:05:06.310Z,19424
2017-07-09T09:06:06.385Z,19936
2017-07-09T09:07:06.361Z,20608
2017-07-09T09:08:06.285Z,21152
2017-07-09T09:09:05.655Z,21952
2017-07-09T09:10:05.922Z,20992
2017-07-09T09:11:05.608Z,19680
2017-07-09T09:12:06.032Z,18272
2017-07-09T09:13:06.221Z,17728
2017-07-09T09:14:05.984Z,18048
2017-07-09T09:15:06.339Z,18144
2017-07-09T09:16:05.648Z,17760
2017-07-09T09:17:06.038Z,17024
2017-07-09T09:18:06.014Z,15680
2017-07-09T09:19:06.056Z,14308
2017-07-09T09:20:06.063Z,13508
2017-07-09T09:21:05.995Z,12932
2017-07-09T09:22:06.064Z,12944
2017-07-09T09:23:05.781Z,12712
2017-07-09T09:24:06.074Z,11988
2017-07-09T09:25:05.759Z,11560
2017-07-09T09:26:05.774Z,11628
2017-07-09T09:27:06.398Z,11888
2017-07-09T09:28:05.688Z,11944
2017-07-09T09:29:05.774Z,12652
2017-07-09T09:30:06.434Z,12388
2017-07-09T09:31:05.696Z,11868
2017-07-09T09:32:06.111Z,10476
2017-07-09T09:33:06.076Z,9512
2017-07-09T09:34:06.498Z,9176
2017-07-09T09:35:06.491Z,8796
2017-07-09T09:36:05.813Z,8556
2017-07-09T09:37:06.119Z,8268
2017-07-09T09:38:05.783Z,7980
2017-07-09T09:39:06.165Z,7636
2017-07-09T09:40:06.165Z,7316
2017-07-09T09:41:06.561Z,7044
2017-07-09T09:42:06.114Z,6860
2017-07-09T09:43:06.579Z,6780
2017-07-09T09:44:05.849Z,6740
2017-07-09T09:45:05.811Z,6692
2017-07-09T09:46:06.106Z,6624
2017-07-09T09:47:06.490Z,6660
2017-07-09T09:48:06.500Z,6752
2017-07-09T09:49:06.923Z,6632
2017-07-09T09:50:06.193Z,6904
2017-07-09T09:51:06.161Z,7240
2017-07-09T09:52:06.245Z,7304
2017-07-09T09:53:06.232Z,7240
2017-07-09T09:54:06.333Z,7112
2017-07-09T09:55:05.929Z,7004
2017-07-09T09:56:06.591Z,6892
2017-07-09T09:57:06.297Z,6824
2017-07-09T09:58:05.891Z,6800
2017-07-09T09:59:05.898Z,6824
2017-07-09T10:00:06.205Z,6864
2017-07-09T10:01:05.882Z,6872
2017-07-09T10:02:06.227Z,6868
2017-07-09T10:03:05.926Z,6880
2017-07-09T10:04:06.230Z,6836
2017-07-09T10:05:05.979Z,6768
2017-07-09T10:06:06.028Z,6676
2017-07-09T10:07:06.635Z,6500
2017-07-09T10:08:06.262Z,6284
2017-07-09T10:09:06.371Z,6116
2017-07-09T10:10:06.355Z,5960
2017-07-09T10:11:06.630Z,5776
2017-07-09T10:12:06.002Z,5640
2017-07-09T10:13:06.351Z,5568
2017-07-09T10:14:06.341Z,5428
2017-07-09T10:15:05.944Z,5128
2017-07-09T10:16:06.003Z,5948
2017-07-09T10:17:06.314Z,6796
2017-07-09T10:18:07.025Z,7168
2017-07-09T10:19:06.022Z,7112
2017-07-09T10:20:06.345Z,6868
2017-07-09T10:21:06.660Z,6876
2017-07-09T10:22:06.988Z,6824
2017-07-09T10:23:06.095Z,6568
2017-07-09T10:24:06.411Z,6244
2017-07-09T10:25:06.727Z,6076
2017-07-09T10:26:06.171Z,6144
2017-07-09T10:27:06.336Z,6432
2017-07-09T10:28:06.079Z,6936
2017-07-09T10:29:06.001Z,7408
2017-07-09T10:30:06.694Z,7384
2017-07-09T10:31:06.399Z,7328
2017-07-09T10:32:06.343Z,7476
2017-07-09T10:33:06.456Z,8128
2017-07-09T10:34:06.464Z,8868
2017-07-09T10:35:07.245Z,8708
2017-07-09T10:36:06.747Z,8392
2017-07-09T10:37:06.435Z,7812
2017-07-09T10:38:06.927Z,7148
2017-07-09T10:39:06.131Z,6612
2017-07-09T10:40:06.480Z,5760
2017-07-09T10:41:06.480Z,5416
2017-07-09T10:42:06.471Z,5112
2017-07-09T10:43:06.123Z,4540
2017-07-09T10:44:06.194Z,4488
2017-07-09T10:45:06.462Z,4900
2017-07-09T10:46:06.842Z,4796
2017-07-09T10:47:06.525Z,4748
2017-07-09T10:48:06.095Z,4736
2017-07-09T10:49:06.163Z,4744
2017-07-09T10:50:06.200Z,4760
2017-07-09T10:51:06.537Z,4884
2017-07-09T10:52:06.601Z,5732
2017-07-09T10:53:06.810Z,6276
2017-07-09T10:54:06.890Z,6224
2017-07-09T10:55:06.583Z,5504
2017-07-09T10:56:06.906Z,5508
2017-07-09T10:57:06.200Z,6244
2017-07-09T10:58:06.546Z,6540
2017-07-09T10:59:06.561Z,6576
2017-07-09T11:00:06.898Z,6064
2017-07-09T11:01:06.548Z,6300
2017-07-09T11:02:06.622Z,6324
2017-07-09T11:03:06.859Z,6280
2017-07-09T11:04:06.585Z,6196
2017-07-09T11:05:07.038Z,5332
2017-07-09T11:06:06.423Z,5840
2017-07-09T11:07:06.904Z,5848
2017-07-09T11:08:06.559Z,5768
2017-07-09T11:09:06.221Z,5704
2017-07-09T11:10:06.543Z,5700
2017-07-09T11:11:06.604Z,5656
2017-07-09T11:12:06.264Z,5652
2017-07-09T11:13:06.598Z,5824
2017-07-09T11:14:06.255Z,5908
2017-07-09T11:15:06.339Z,5948
2017-07-09T11:16:06.565Z,5844
2017-07-09T11:17:06.582Z,5804
2017-07-09T11:18:06.696Z,5772
2017-07-09T11:19:06.627Z,5788
2017-07-09T11:20:07.002Z,6168
2017-07-09T11:21:07.049Z,6428
2017-07-09T11:22:06.510Z,6328
2017-07-09T11:23:06.677Z,6140
2017-07-09T11:24:06.578Z,6128
2017-07-09T11:25:06.707Z,6212
2017-07-09T11:26:06.318Z,6276
2017-07-09T11:27:06.977Z,6460
2017-07-09T11:28:06.718Z,6420
2017-07-09T11:29:06.394Z,6228
2017-07-09T11:30:07.022Z,6692
2017-07-09T11:31:07.057Z,7132
2017-07-09T11:32:06.718Z,6808
2017-07-09T11:33:06.607Z,6056
2017-07-09T11:34:06.570Z,6000
2017-07-09T11:35:06.948Z,5948
2017-07-09T11:36:06.951Z,6044
2017-07-09T11:37:06.293Z,6236
2017-07-09T11:38:06.645Z,6012
2017-07-09T11:39:06.971Z,5820
2017-07-09T11:40:06.309Z,6016
2017-07-09T11:41:06.317Z,6452
2017-07-09T11:42:06.647Z,6324
2017-07-09T11:43:06.650Z,5964
2017-07-09T11:44:06.684Z,5864
2017-07-09T11:45:06.665Z,5740
2017-07-09T11:46:06.345Z,5624
2017-07-09T11:47:07.021Z,5592
2017-07-09T11:48:06.353Z,5548
2017-07-09T11:49:06.689Z,5572
2017-07-09T11:50:06.360Z,6024
2017-07-09T11:51:06.703Z,6744
2017-07-09T11:52:06.383Z,7272
2017-07-09T11:53:06.386Z,6376
2017-07-09T11:54:06.713Z,5524
2017-07-09T11:55:06.713Z,6032
2017-07-09T11:56:06.392Z,5484
2017-07-09T11:57:06.727Z,4960
2017-07-09T11:58:06.766Z,4928
2017-07-09T11:59:07.076Z,5824
2017-07-09T12:00:06.420Z,7576
2017-07-09T12:01:07.072Z,9084
2017-07-09T12:02:06.423Z,8916
2017-07-09T12:03:06.779Z,8864
2017-07-09T12:04:06.765Z,8556
2017-07-09T12:05:07.110Z,8604
2017-07-09T12:06:06.787Z,9340
2017-07-09T12:07:06.773Z,10732
2017-07-09T12:08:07.107Z,13280
2017-07-09T12:09:06.457Z,13108
2017-07-09T12:10:06.481Z,10892
2017-07-09T12:11:06.484Z,9420
2017-07-09T12:12:06.808Z,9188
2017-07-09T12:13:06.802Z,9312
2017-07-09T12:14:07.464Z,9588
2017-07-09T12:15:06.485Z,10432
2017-07-09T12:16:06.821Z,11056
2017-07-09T12:17:06.496Z,11868
2017-07-09T12:18:07.161Z,11460
2017-07-09T12:19:07.261Z,10416
2017-07-09T12:20:07.011Z,10024
2017-07-09T12:21:06.577Z,9796
2017-07-09T12:22:07.015Z,9244
2017-07-09T12:23:06.571Z,8904
2017-07-09T12:24:07.033Z,8364
2017-07-09T12:25:06.607Z,7708
2017-07-09T12:26:07.308Z,6616
2017-07-09T12:27:06.592Z,6660
2017-07-09T12:28:07.268Z,6612
2017-07-09T12:29:07.303Z,6748
2017-07-09T12:30:06.999Z,7636
2017-07-09T12:31:06.935Z,7492
2017-07-09T12:32:07.350Z,7300
2017-07-09T12:33:06.620Z,8060
2017-07-09T12:34:06.662Z,8772
2017-07-09T12:35:06.618Z,9064
2017-07-09T12:36:06.689Z,9664
2017-07-09T12:37:06.735Z,10420
2017-07-09T12:38:06.723Z,11420
2017-07-09T12:39:07.018Z,12036
2017-07-09T12:40:07.004Z,12340
2017-07-09T12:41:07.308Z,12904
2017-07-09T12:42:07.377Z,11984
2017-07-09T12:43:07.007Z,10772
2017-07-09T12:44:06.746Z,9720
2017-07-09T12:45:07.391Z,8732
2017-07-09T12:46:06.736Z,9824
2017-07-09T12:47:07.099Z,11136
2017-07-09T12:48:06.752Z,12732
2017-07-09T12:49:07.403Z,12780
2017-07-09T12:50:07.095Z,11396
2017-07-09T12:51:07.090Z,9164
2017-07-09T12:52:07.178Z,7920
2017-07-09T12:53:07.167Z,6992
2017-07-09T12:54:06.795Z,6600
2017-07-09T12:55:07.080Z,7508
2017-07-09T12:56:07.791Z,9740
2017-07-09T12:57:07.229Z,10904
2017-07-09T12:58:06.744Z,9832
2017-07-09T12:59:07.096Z,9228
2017-07-09T13:00:06.855Z,9048
2017-07-09T13:01:07.522Z,9120
2017-07-09T13:02:07.205Z,11032
2017-07-09T13:03:07.222Z,12680
2017-07-09T13:04:07.496Z,13800
2017-07-09T13:05:06.864Z,12868
2017-07-09T13:06:07.176Z,11128
2017-07-09T13:07:06.832Z,9972
2017-07-09T13:08:06.914Z,9408
2017-07-09T13:09:07.429Z,9940
2017-07-09T13:10:06.924Z,11520
2017-07-09T13:11:07.224Z,11748
2017-07-09T13:12:07.634Z,11220
2017-07-09T13:13:06.871Z,10400
2017-07-09T13:14:07.019Z,10012
2017-07-09T13:15:06.873Z,9240
2017-07-09T13:16:07.250Z,8864
2017-07-09T13:17:07.233Z,8232
2017-07-09T13:18:07.585Z,7820
2017-07-09T13:19:07.219Z,7712
2017-07-09T13:20:07.643Z,7432
2017-07-09T13:21:07.666Z,7332
2017-07-09T13:22:07.363Z,7216
2017-07-09T13:23:07.744Z,7168
2017-07-09T13:24:07.328Z,7144
2017-07-09T13:25:06.967Z,7076
2017-07-09T13:26:07.378Z,7052
2017-07-09T13:27:07.352Z,7132
2017-07-09T13:28:07.089Z,7192
2017-07-09T13:29:06.910Z,7208
2017-07-09T13:30:07.779Z,7180